Time;durP1;ratioP1;P1;durP2;ratioP2;P2;SDS_P1;SDS_P2;PMS_P1;PMS_P2;Temp;Humidity;BMP_temperature;BMP_pressure;BME280_temperature;BME280_humidity;BME280_pressure;Samples;Min_cycle;Max_cycle;Signal;HPM_P1;HPM_P2
2022/04/30 00:01:19;;;;;;;;;;;;;;;4.01;73.74;101442.09;85686;1340;22486;-76
2022/04/30 00:03:26;;;;;;;;;;;;;;;4.00;73.67;101440.71;85540;1339;22613;-76
2022/04/30 00:05:32;;;;;;;;;;;;;;;3.99;73.87;101438.46;85557;1339;23151;-76
2022/04/30 00:07:36;;;;;;;;;;;;;;;3.97;74.03;101435.86;85571;1339;23041;-76
2022/04/30 00:09:44;;;;;;;;;;;;;;;3.95;74.17;101438.09;85510;1339;22471;-76
2022/04/30 00:11:51;;;;;;;;;;;;;;;3.95;74.19;101437.05;85557;1339;23241;-76
2022/04/30 00:13:56;;;;;;;;;;;;;;;3.96;73.96;101435.16;85672;1336;22632;-76
2022/04/30 00:16:00;;;;;;;;;;;;;;;3.96;74.14;101437.41;85604;1332;23040;-77
2022/04/30 00:18:05;;;;;;;;;;;;;;;3.96;73.93;101435.86;85687;1339;22519;-76
2022/04/30 00:20:13;;;;;;;;;;;;;;;3.96;74.03;101439.48;85555;1339;22461;-79
2022/04/30 00:22:18;;;;;;;;;;;;;;;4.00;74.12;101438.80;85537;1337;23129;-79
2022/04/30 00:24:26;;;;;;;;;;;;;;;4.02;74.28;101438.83;85683;1336;22645;-76
2022/04/30 00:26:33;;;;;;;;;;;;;;;4.01;74.11;101440.37;85547;1339;22560;-77
2022/04/30 00:28:38;;;;;;;;;;;;;;;3.98;74.26;101440.35;85686;1339;23145;-77
2022/04/30 00:30:45;;;;;;;;;;;;;;;3.94;74.11;101436.88;85563;1339;23208;-76
2022/04/30 00:32:51;;;;;;;;;;;;;;;3.91;74.01;101440.31;85688;1336;22472;-77
2022/04/30 00:34:55;;;;;;;;;;;;;;;3.89;74.11;101440.27;85537;1338;23164;-77
2022/04/30 00:37:03;;;;;;;;;;;;;;;3.86;73.99;101444.59;85557;1334;22609;-77
2022/04/30 00:39:08;;;;;;;;;;;;;;;3.79;73.72;101443.51;85490;1341;23149;-76
2022/04/30 00:41:15;;;;;;;;;;;;;;;3.69;73.67;101443.09;85532;1339;22539;-76
2022/04/30 00:43:21;;;;;;;;;;;;;;;3.61;73.86;101445.27;85550;1340;22612;-77
2022/04/30 00:45:25;;;;;;;;;;;;;;;3.56;74.29;101448.00;85557;1339;22499;-76
2022/04/30 00:47:30;;;;;;;;;;;;;;;3.52;74.22;101445.89;85532;1339;22613;-76
2022/04/30 00:49:35;;;;;;;;;;;;;;;3.46;74.14;101443.94;85689;1338;23077;-76
2022/04/30 00:51:41;;;;;;;;;;;;;;;3.38;74.21;101446.29;85705;1336;23158;-76
2022/04/30 00:53:47;;;;;;;;;;;;;;;3.33;74.36;101445.21;85501;1339;23136;-76
2022/04/30 00:55:52;;;;;;;;;;;;;;;3.28;74.57;101444.48;85557;1338;23097;-76
2022/04/30 00:57:59;;;;;;;;;;;;;;;3.21;74.51;101445.45;85697;1336;23199;-77
2022/04/30 01:00:04;;;;;;;;;;;;;;;3.14;74.51;101445.20;85691;1339;23213;-77
2022/04/30 01:02:11;;;;;;;;;;;;;;;3.09;74.69;101447.23;85554;1341;23074;-77
2022/04/30 01:04:16;;;;;;;;;;;;;;;3.04;74.86;101443.56;85557;1338;22462;-77
2022/04/30 01:06:25;;;;;;;;;;;;;;;2.99;74.88;101449.35;85696;1336;23167;-76
2022/04/30 01:08:33;;;;;;;;;;;;;;;2.94;75.06;101445.53;85508;1339;22460;-76
2022/04/30 01:10:38;;;;;;;;;;;;;;;2.90;75.09;101445.13;85562;1337;23268;-76
2022/04/30 01:12:43;;;;;;;;;;;;;;;2.86;75.20;101442.85;85675;1337;22526;-76
2022/04/30 01:14:49;;;;;;;;;;;;;;;2.82;75.20;101442.12;85668;1338;23117;-77
2022/04/30 01:16:54;;;;;;;;;;;;;;;2.78;75.31;101440.88;84788;1338;1002544;-78
2022/04/30 01:18:59;;;;;;;;;;;;;;;2.76;75.49;101441.89;85693;1336;22546;-77
2022/04/30 01:21:07;;;;;;;;;;;;;;;2.75;75.53;101438.95;85695;1336;23122;-76
2022/04/30 01:23:16;;;;;;;;;;;;;;;2.74;75.49;101437.38;85399;1342;22513;-76
2022/04/30 01:25:22;;;;;;;;;;;;;;;2.69;75.56;101437.67;85465;1340;22518;-78
2022/04/30 01:27:26;;;;;;;;;;;;;;;2.66;75.69;101435.58;85691;1336;22551;-78
2022/04/30 01:29:32;;;;;;;;;;;;;;;2.63;75.76;101437.42;85480;1339;23157;-76
2022/04/30 01:39:02;;;;;;;;;;;;;;;2.63;76.06;101447.25;85624;1339;22579;-77
2022/04/30 01:41:07;;;;;;;;;;;;;;;2.65;76.10;101442.09;85694;1337;22603;-78
2022/04/30 01:43:11;;;;;;;;;;;;;;;2.66;76.16;101439.86;85534;1339;23114;-78
2022/04/30 01:45:18;;;;;;;;;;;;;;;2.67;76.10;101437.48;85559;1339;23154;-77
2022/04/30 01:47:23;;;;;;;;;;;;;;;2.68;76.13;101441.45;85560;1338;23121;-76
2022/04/30 01:49:27;;;;;;;;;;;;;;;2.67;76.04;101440.23;85445;1338;22525;-77
2022/04/30 01:51:32;;;;;;;;;;;;;;;2.69;76.09;101437.33;85556;1338;22519;-77
2022/04/30 01:53:36;;;;;;;;;;;;;;;2.68;75.95;101436.45;85547;1339;23036;-76
2022/04/30 01:55:44;;;;;;;;;;;;;;;2.65;75.88;101437.80;85546;1339;22537;-77
2022/04/30 01:57:49;;;;;;;;;;;;;;;2.62;75.87;101440.17;85559;1338;23178;-77
2022/04/30 01:59:53;;;;;;;;;;;;;;;2.59;75.90;101438.42;85541;1341;23055;-78
2022/04/30 02:02:01;;;;;;;;;;;;;;;2.56;75.82;101440.96;85543;1340;22613;-78
2022/04/30 02:04:05;;;;;;;;;;;;;;;2.50;75.73;101442.98;85432;1338;23173;-78
2022/04/30 02:06:10;;;;;;;;;;;;;;;2.46;75.91;101442.56;85552;1339;23193;-76
2022/04/30 02:08:18;;;;;;;;;;;;;;;2.43;75.91;101443.21;85272;1342;23277;-76
2022/04/30 02:10:23;;;;;;;;;;;;;;;2.38;76.03;101440.23;85615;1339;23104;-78
2022/04/30 02:12:28;;;;;;;;;;;;;;;2.33;75.93;101443.61;85646;1336;23303;-77
2022/04/30 02:14:33;;;;;;;;;;;;;;;2.27;76.07;101442.16;85668;1338;23126;-76
2022/04/30 02:16:37;;;;;;;;;;;;;;;2.21;76.20;101438.63;85649;1336;22637;-75
2022/04/30 02:18:42;;;;;;;;;;;;;;;2.16;76.22;101438.39;85434;1339;23154;-76
2022/04/30 02:20:50;;;;;;;;;;;;;;;2.11;76.35;101435.05;85657;1334;22499;-77
2022/04/30 02:22:56;;;;;;;;;;;;;;;2.07;76.42;101432.42;85624;1337;23053;-78
2022/04/30 02:25:00;;;;;;;;;;;;;;;2.03;76.63;101433.56;85525;1339;22537;-76
2022/04/30 02:27:06;;;;;;;;;;;;;;;1.99;76.46;101428.69;85391;1339;22537;-76
2022/04/30 02:29:14;;;;;;;;;;;;;;;1.97;76.45;101429.00;84812;1339;1002404;-76
2022/04/30 02:31:23;;;;;;;;;;;;;;;1.94;76.76;101427.23;85376;1338;23086;-76
2022/04/30 02:33:30;;;;;;;;;;;;;;;1.91;76.86;101424.61;85403;1340;22515;-76
2022/04/30 02:35:35;;;;;;;;;;;;;;;1.88;76.81;101424.91;85505;1339;23205;-76
2022/04/30 02:37:39;;;;;;;;;;;;;;;1.84;76.76;101421.95;85401;1339;23255;-77
2022/04/30 02:39:46;;;;;;;;;;;;;;;1.79;76.83;101426.69;85342;1339;22511;-78
2022/04/30 02:41:51;;;;;;;;;;;;;;;1.76;76.98;101425.08;84663;1339;1002930;-77
2022/04/30 02:43:56;;;;;;;;;;;;;;;1.75;76.94;101427.13;85428;1339;23210;-78
2022/04/30 02:46:00;;;;;;;;;;;;;;;1.75;77.17;101429.89;85616;1340;23247;-77
2022/04/30 02:48:07;;;;;;;;;;;;;;;1.76;77.41;101428.89;85621;1338;23112;-77
2022/04/30 02:50:15;;;;;;;;;;;;;;;1.78;77.20;101427.20;85419;1338;22514;-77
2022/04/30 02:52:23;;;;;;;;;;;;;;;1.78;77.32;101428.91;85623;1336;22496;-77
2022/04/30 02:54:29;;;;;;;;;;;;;;;1.80;77.35;101430.64;85629;1336;23083;-77
2022/04/30 02:56:33;;;;;;;;;;;;;;;1.78;77.14;101428.55;85108;1322;1003345;-75
2022/04/30 03:01:05;;;;;;;;;;;;;;;1.69;77.13;101427.90;85546;1339;22490;-76
2022/04/30 03:03:10;;;;;;;;;;;;;;;1.65;77.52;101423.89;85549;1336;23093;-76
2022/04/30 03:05:18;;;;;;;;;;;;;;;1.61;77.18;101423.48;85560;1334;22481;-77
2022/04/30 03:07:23;;;;;;;;;;;;;;;1.55;77.26;101417.73;84843;1336;1002235;-77
2022/04/30 03:09:27;;;;;;;;;;;;;;;1.51;77.46;101419.20;85502;1338;22651;-77
2022/04/30 03:11:32;;;;;;;;;;;;;;;1.52;77.54;101418.34;85516;1338;22464;-77
2022/04/30 03:13:37;;;;;;;;;;;;;;;1.53;77.53;101417.87;85501;1338;22518;-77
2022/04/30 03:15:43;;;;;;;;;;;;;;;1.53;77.86;101420.63;85554;1339;22451;-77
2022/04/30 03:22:38;;;;;;;;;;;;;;;1.55;77.99;101425.63;85499;1337;23075;-76
2022/04/30 03:24:43;;;;;;;;;;;;;;;1.57;77.91;101424.61;85502;1338;23069;-76
2022/04/30 03:26:50;;;;;;;;;;;;;;;1.58;77.88;101421.71;85540;1337;23312;-77
2022/04/30 03:28:55;;;;;;;;;;;;;;;1.60;78.07;101421.92;85501;1339;22471;-78
2022/04/30 03:31:00;;;;;;;;;;;;;;;1.63;77.96;101419.74;85551;1338;22470;-77
2022/04/30 03:33:08;;;;;;;;;;;;;;;1.67;77.81;101423.40;85530;1339;22523;-77
2022/04/30 03:35:13;;;;;;;;;;;;;;;1.68;77.90;101423.08;85547;1333;22473;-77
2022/04/30 03:37:17;;;;;;;;;;;;;;;1.71;77.96;101421.73;85524;1339;23076;-77
2022/04/30 03:39:22;;;;;;;;;;;;;;;1.74;77.98;101418.19;85508;1338;23095;-76
2022/04/30 03:41:27;;;;;;;;;;;;;;;1.77;77.94;101417.35;85519;1339;23071;-77
2022/04/30 03:43:35;;;;;;;;;;;;;;;1.78;77.98;101421.70;85485;1336;22465;-77
2022/04/30 03:45:41;;;;;;;;;;;;;;;1.82;78.04;101420.86;85502;1338;22516;-77
2022/04/30 03:47:46;;;;;;;;;;;;;;;1.83;77.92;101420.90;85270;1342;22593;-76
2022/04/30 03:49:53;;;;;;;;;;;;;;;1.86;78.01;101421.10;85534;1341;22553;-76
2022/04/30 03:51:58;;;;;;;;;;;;;;;1.91;78.11;101422.72;85413;1339;22522;-77
2022/04/30 03:54:06;;;;;;;;;;;;;;;2.00;78.31;101421.98;85395;1340;23136;-76
2022/04/30 03:56:11;;;;;;;;;;;;;;;2.08;78.59;101422.27;85522;1336;23142;-77
2022/04/30 03:58:16;;;;;;;;;;;;;;;2.16;78.63;101427.39;85504;1338;23088;-77
2022/04/30 04:00:23;;;;;;;;;;;;;;;2.55;79.32;101428.54;85414;1338;23139;-76
2022/04/30 04:02:28;;;;;;;;;;;;;;;3.42;81.50;101425.27;85541;1336;22481;-76
2022/04/30 04:04:36;;;;;;;;;;;;;;;4.39;80.78;101421.04;85243;1340;23160;-77
2022/04/30 04:06:42;;;;;;;;;;;;;;;5.22;79.67;101423.48;85510;1339;23163;-78
2022/04/30 04:08:51;;;;;;;;;;;;;;;5.76;77.82;101417.77;85528;1339;23041;-76
2022/04/30 04:10:55;;;;;;;;;;;;;;;5.99;76.35;101412.39;85499;1339;23240;-78
2022/04/30 04:17:45;;;;;;;;;;;;;;;6.13;72.59;101413.73;85287;1341;22599;-76
2022/04/30 04:19:50;;;;;;;;;;;;;;;6.09;72.35;101417.06;85516;1339;22594;-78
2022/04/30 04:21:57;;;;;;;;;;;;;;;6.05;72.41;101415.31;85510;1339;22519;-77
2022/04/30 04:26:32;;;;;;;;;;;;;;;6.44;72.64;101416.55;85512;1339;23232;-76
2022/04/30 04:28:37;;;;;;;;;;;;;;;6.67;72.13;101414.73;84791;1339;1002663;-76
2022/04/30 04:30:42;;;;;;;;;;;;;;;7.01;73.02;101415.40;85501;1339;22436;-76
2022/04/30 04:32:46;;;;;;;;;;;;;;;7.76;73.49;101410.77;85508;1339;22567;-78
2022/04/30 04:34:54;;;;;;;;;;;;;;;8.71;71.64;101412.65;85496;1339;22491;-78
2022/04/30 04:37:01;;;;;;;;;;;;;;;9.79;70.66;101405.36;85505;1338;22500;-77
2022/04/30 04:39:11;;;;;;;;;;;;;;;10.90;67.32;101401.71;85549;1338;23025;-77
2022/04/30 04:41:19;;;;;;;;;;;;;;;11.91;64.73;101400.09;85504;1339;23142;-78
2022/04/30 04:43:23;;;;;;;;;;;;;;;12.90;61.95;101399.48;85514;1338;23157;-78
2022/04/30 04:45:28;;;;;;;;;;;;;;;13.61;59.26;101399.33;85564;1339;22440;-79
2022/04/30 04:47:36;;;;;;;;;;;;;;;14.40;56.85;101395.61;85273;1340;22506;-77
2022/04/30 04:49:41;;;;;;;;;;;;;;;15.02;53.81;101393.23;85501;1339;23149;-78
2022/04/30 04:51:45;;;;;;;;;;;;;;;15.63;52.44;101395.61;85506;1338;23062;-77
2022/04/30 04:53:53;;;;;;;;;;;;;;;16.10;51.11;101395.89;85498;1341;22466;-77
2022/04/30 04:56:03;;;;;;;;;;;;;;;16.66;48.03;101398.78;85545;1339;22621;-77
2022/04/30 04:58:08;;;;;;;;;;;;;;;17.43;46.64;101397.70;85521;1338;23111;-77
2022/04/30 05:00:14;;;;;;;;;;;;;;;18.13;44.70;101394.32;85496;1338;22462;-77
2022/04/30 05:02:19;;;;;;;;;;;;;;;18.59;43.34;101395.31;85441;1338;22471;-77
2022/04/30 05:04:24;;;;;;;;;;;;;;;18.88;42.34;101394.80;83011;1340;3246176;-76
2022/04/30 05:06:28;;;;;;;;;;;;;;;19.27;41.25;101390.65;85518;1339;23237;-78
2022/04/30 05:08:33;;;;;;;;;;;;;;;19.66;39.92;101390.63;85522;1335;22597;-79
2022/04/30 05:10:37;;;;;;;;;;;;;;;19.93;38.90;101394.67;85515;1339;22560;-79
2022/04/30 05:12:46;;;;;;;;;;;;;;;20.34;37.78;101390.53;85567;1336;22559;-79
2022/04/30 05:14:53;;;;;;;;;;;;;;;20.79;36.27;101395.34;85536;1339;22441;-80
2022/04/30 05:16:57;;;;;;;;;;;;;;;21.16;36.77;101394.71;85532;1338;22479;-79
2022/04/30 05:19:05;;;;;;;;;;;;;;;21.61;35.36;101391.02;85547;1338;22468;-79
2022/04/30 05:21:09;;;;;;;;;;;;;;;21.98;35.03;101387.91;85516;1339;23046;-79
2022/04/30 05:23:14;;;;;;;;;;;;;;;22.37;34.28;101388.02;85517;1337;23154;-76
2022/04/30 05:25:18;;;;;;;;;;;;;;;22.88;33.91;101387.38;85516;1339;22428;-76
2022/04/30 05:27:26;;;;;;;;;;;;;;;23.33;32.49;101386.15;85556;1338;22504;-77
2022/04/30 05:29:31;;;;;;;;;;;;;;;23.47;32.37;101387.94;85530;1338;23181;-76
2022/04/30 05:31:35;;;;;;;;;;;;;;;23.63;31.25;101381.39;85519;1339;23154;-79
2022/04/30 05:33:40;;;;;;;;;;;;;;;23.74;30.38;101383.28;85555;1337;23122;-80
2022/04/30 05:35:45;;;;;;;;;;;;;;;23.82;30.08;101385.85;85526;1338;23045;-78
2022/04/30 05:37:50;;;;;;;;;;;;;;;23.91;29.87;101384.02;85518;1338;23154;-78
2022/04/30 05:39:54;;;;;;;;;;;;;;;24.08;29.56;101384.14;85556;1339;22447;-78
2022/04/30 05:41:59;;;;;;;;;;;;;;;24.26;29.50;101384.45;85522;1339;23671;-75
2022/04/30 05:44:07;;;;;;;;;;;;;;;24.40;28.91;101384.46;85519;1338;23025;-74
2022/04/30 05:46:12;;;;;;;;;;;;;;;24.56;29.12;101385.13;85564;1338;22618;-74
2022/04/30 05:48:16;;;;;;;;;;;;;;;24.80;28.70;101389.96;85512;1338;22487;-78
2022/04/30 05:50:25;;;;;;;;;;;;;;;25.03;28.07;101389.16;85554;1339;22945;-78
2022/04/30 05:52:30;;;;;;;;;;;;;;;25.23;28.09;101391.64;85509;1339;22532;-75
2022/04/30 05:54:35;;;;;;;;;;;;;;;25.31;27.66;101397.58;85555;1338;23146;-75
2022/04/30 05:56:40;;;;;;;;;;;;;;;25.46;27.48;101397.86;85509;1338;22507;-78
2022/04/30 05:58:45;;;;;;;;;;;;;;;25.63;27.06;101400.38;85520;1341;23022;-78
2022/04/30 06:00:53;;;;;;;;;;;;;;;25.82;26.85;101395.71;85537;1338;22465;-78
2022/04/30 06:02:58;;;;;;;;;;;;;;;25.79;26.44;101399.77;85526;1339;22485;-78
2022/04/30 06:05:03;;;;;;;;;;;;;;;25.78;26.52;101396.45;85561;1339;22480;-78
2022/04/30 06:07:10;;;;;;;;;;;;;;;26.02;26.14;101397.90;85560;1337;22497;-78
2022/04/30 06:09:15;;;;;;;;;;;;;;;26.25;26.01;101395.41;85526;1338;22439;-78
2022/04/30 06:11:21;;;;;;;;;;;;;;;26.53;25.81;101394.38;85514;1339;23026;-78
2022/04/30 06:13:25;;;;;;;;;;;;;;;26.78;25.03;101394.08;85522;1339;23106;-75
2022/04/30 06:15:30;;;;;;;;;;;;;;;26.95;25.03;101399.31;85553;1340;22443;-75
2022/04/30 06:17:40;;;;;;;;;;;;;;;27.07;24.87;101398.46;85525;1338;23028;-78
2022/04/30 06:19:47;;;;;;;;;;;;;;;27.15;24.06;101395.77;85524;1338;22443;-78
2022/04/30 06:21:55;;;;;;;;;;;;;;;27.07;24.43;101394.52;85523;1338;23077;-79
2022/04/30 06:24:00;;;;;;;;;;;;;;;27.31;24.37;101394.10;85522;1338;22499;-78
2022/04/30 06:26:08;;;;;;;;;;;;;;;27.67;24.50;101394.66;85524;1339;22511;-78
2022/04/30 06:28:12;;;;;;;;;;;;;;;28.10;23.50;101393.80;85520;1338;23268;-75
2022/04/30 06:30:18;;;;;;;;;;;;;;;28.27;23.34;101391.98;85544;1339;22589;-75
2022/04/30 06:32:23;;;;;;;;;;;;;;;28.43;23.38;101391.95;85397;1339;22632;-79
2022/04/30 06:34:31;;;;;;;;;;;;;;;28.39;23.00;101389.96;85529;1339;22605;-79
2022/04/30 06:36:36;;;;;;;;;;;;;;;28.44;22.69;101389.42;85390;1339;22562;-76
2022/04/30 06:38:41;;;;;;;;;;;;;;;28.65;22.99;101392.26;85302;1340;23208;-76
2022/04/30 06:40:47;;;;;;;;;;;;;;;28.84;22.20;101394.58;85553;1338;23181;-76
2022/04/30 06:42:52;;;;;;;;;;;;;;;28.99;21.62;101397.15;85523;1338;22541;-75
2022/04/30 06:45:00;;;;;;;;;;;;;;;29.11;21.49;101398.65;85528;1341;23152;-74
2022/04/30 06:47:05;;;;;;;;;;;;;;;29.20;21.42;101397.20;85518;1339;23214;-75
2022/04/30 06:49:13;;;;;;;;;;;;;;;29.16;21.18;101398.34;85553;1339;22519;-75
2022/04/30 06:51:21;;;;;;;;;;;;;;;29.04;21.21;101399.23;85523;1339;23032;-74
2022/04/30 06:58:12;;;;;;;;;;;;;;;29.53;20.46;101396.20;85528;1339;23229;-77
2022/04/30 07:02:55;;;;;;;;;;;;;;;30.25;20.29;101391.87;84847;1345;23180;-76
2022/04/30 07:05:12;;;;;;;;;;;;;;;30.51;19.39;101392.68;84840;1347;22499;-80
2022/04/30 07:07:17;;;;;;;;;;;;;;;30.47;19.56;101393.41;84826;1345;23262;-77
2022/04/30 07:09:24;;;;;;;;;;;;;;;30.44;18.76;101389.29;85534;1339;23133;-77
2022/04/30 07:11:31;;;;;;;;;;;;;;;30.70;19.10;101387.89;85561;1339;23229;-84
2022/04/30 07:13:37;;;;;;;;;;;;;;;31.00;18.77;101388.85;85531;1339;23081;-83
2022/04/30 07:15:41;;;;;;;;;;;;;;;31.06;18.17;101389.80;85528;1338;22506;-82
2022/04/30 07:17:49;;;;;;;;;;;;;;;30.99;17.76;101385.16;85521;1339;22497;-80
2022/04/30 07:19:55;;;;;;;;;;;;;;;30.92;18.15;101383.54;85552;1340;23112;-80
2022/04/30 07:22:03;;;;;;;;;;;;;;;31.04;17.90;101383.17;85582;1339;23111;-80
2022/04/30 07:24:17;;;;;;;;;;;;;;;30.89;18.20;101378.66;85513;1339;22490;-80
2022/04/30 07:26:25;;;;;;;;;;;;;;;30.85;18.19;101378.58;85553;1334;22567;-78
2022/04/30 07:28:35;;;;;;;;;;;;;;;31.28;17.19;101382.60;85503;1339;23147;-80
2022/04/30 07:30:40;;;;;;;;;;;;;;;31.56;17.04;101380.17;85552;1339;23312;-80
2022/04/30 07:32:51;;;;;;;;;;;;;;;31.65;16.85;101381.84;85501;1338;23217;-81
2022/04/30 07:34:56;;;;;;;;;;;;;;;31.85;16.75;101380.70;85359;1342;23168;-80
2022/04/30 07:37:10;;;;;;;;;;;;;;;31.94;16.21;101379.55;85488;1340;22489;-80
2022/04/30 07:39:15;;;;;;;;;;;;;;;31.97;16.34;101375.95;85544;1338;23046;-80
2022/04/30 07:41:22;;;;;;;;;;;;;;;32.12;16.30;101376.77;85490;1339;22995;-80
2022/04/30 07:43:30;;;;;;;;;;;;;;;32.01;16.39;101373.65;85495;1338;22482;-80
2022/04/30 07:45:35;;;;;;;;;;;;;;;31.92;15.76;101373.42;85483;1339;23622;-80
2022/04/30 07:48:04;;;;;;;;;;;;;;;31.80;15.82;101369.64;85567;1339;23113;-82
2022/04/30 07:50:10;;;;;;;;;;;;;;;31.82;15.94;101365.17;85497;1339;22485;-82
2022/04/30 07:52:19;;;;;;;;;;;;;;;31.95;15.84;101366.25;85682;1339;22493;-75
2022/04/30 07:54:24;;;;;;;;;;;;;;;32.00;15.87;101363.35;85672;1336;23135;-75
2022/04/30 07:56:31;;;;;;;;;;;;;;;31.98;15.71;101364.13;85675;1336;23268;-75
2022/04/30 07:58:38;;;;;;;;;;;;;;;32.05;16.07;101362.08;85399;1338;23177;-81
2022/04/30 08:00:43;;;;;;;;;;;;;;;32.23;15.34;101363.56;85551;1336;22497;-81
2022/04/30 08:02:48;;;;;;;;;;;;;;;32.18;14.82;101363.45;85549;1336;23151;-81
2022/04/30 08:04:52;;;;;;;;;;;;;;;32.29;15.01;101368.48;85579;1336;23230;-81
2022/04/30 08:07:05;;;;;;;;;;;;;;;32.42;14.91;101360.19;85584;1339;23116;-76
2022/04/30 08:09:12;;;;;;;;;;;;;;;32.73;15.30;101362.65;85570;1337;23068;-75
2022/04/30 08:11:17;;;;;;;;;;;;;;;33.03;14.47;101359.56;85588;1336;22461;-75
2022/04/30 08:13:22;;;;;;;;;;;;;;;33.20;13.89;101357.35;85567;1336;23186;-76
2022/04/30 08:15:31;;;;;;;;;;;;;;;33.26;13.70;101352.48;85569;1338;22514;-76
2022/04/30 08:17:39;;;;;;;;;;;;;;;33.31;13.55;101354.70;85381;1339;23139;-76
2022/04/30 08:19:49;;;;;;;;;;;;;;;33.39;13.26;101356.00;85575;1339;22505;-75
2022/04/30 08:21:57;;;;;;;;;;;;;;;33.48;13.14;101356.52;85554;1336;23087;-76
2022/04/30 08:24:06;;;;;;;;;;;;;;;33.34;13.25;101356.25;85598;1336;22496;-76
2022/04/30 08:26:11;;;;;;;;;;;;;;;33.13;13.25;101358.15;85589;1337;22465;-75
2022/04/30 08:28:16;;;;;;;;;;;;;;;32.88;13.48;101354.89;85589;1339;23185;-80
2022/04/30 08:30:21;;;;;;;;;;;;;;;32.90;13.81;101358.01;85585;1339;22472;-81
2022/04/30 08:32:26;;;;;;;;;;;;;;;32.91;13.93;101360.77;85588;1339;23252;-81
2022/04/30 08:34:33;;;;;;;;;;;;;;;32.94;13.61;101361.36;85586;1336;22490;-82
2022/04/30 08:36:44;;;;;;;;;;;;;;;32.88;13.39;101359.34;85415;1342;23605;-81
2022/04/30 08:38:54;;;;;;;;;;;;;;;32.84;13.41;101359.90;85567;1339;23201;-76
2022/04/30 08:40:59;;;;;;;;;;;;;;;32.76;13.21;101359.79;85594;1338;23121;-76
2022/04/30 08:43:12;;;;;;;;;;;;;;;32.77;13.27;101354.81;85584;1336;23078;-76
2022/04/30 08:45:21;;;;;;;;;;;;;;;32.81;13.97;101357.58;85577;1336;23023;-76
2022/04/30 08:47:26;;;;;;;;;;;;;;;32.85;13.38;101353.11;85608;1340;23120;-76
2022/04/30 08:49:35;;;;;;;;;;;;;;;32.91;12.92;101348.70;85599;1339;22528;-76
2022/04/30 08:51:43;;;;;;;;;;;;;;;33.00;13.53;101346.11;85616;1336;22596;-76
2022/04/30 08:53:51;;;;;;;;;;;;;;;33.16;13.32;101339.94;85599;1336;23175;-81
2022/04/30 08:55:56;;;;;;;;;;;;;;;33.15;13.67;101345.13;85600;1339;22568;-81
2022/04/30 08:58:06;;;;;;;;;;;;;;;33.27;13.98;101340.47;85592;1336;23138;-80
2022/04/30 09:00:18;;;;;;;;;;;;;;;33.47;13.50;101333.66;85585;1340;22453;-81
2022/04/30 09:02:24;;;;;;;;;;;;;;;33.36;12.84;101336.67;85620;1336;23329;-81
2022/04/30 09:04:45;;;;;;;;;;;;;;;33.12;12.80;101333.86;85614;1333;22472;-81
2022/04/30 09:06:55;;;;;;;;;;;;;;;33.18;12.80;101331.49;85599;1336;22627;-78
2022/04/30 09:09:02;;;;;;;;;;;;;;;33.23;12.78;101327.86;85583;1339;22609;-83
2022/04/30 09:11:08;;;;;;;;;;;;;;;33.03;13.12;101331.48;85570;1339;23219;-80
2022/04/30 09:13:14;;;;;;;;;;;;;;;32.74;13.07;101331.55;85538;1339;22495;-79
2022/04/30 09:15:19;;;;;;;;;;;;;;;32.52;13.15;101329.42;85543;1339;22539;-80
2022/04/30 09:17:26;;;;;;;;;;;;;;;32.21;13.11;101326.11;85589;1337;23212;-77
2022/04/30 09:19:36;;;;;;;;;;;;;;;31.80;13.54;101327.54;85587;1336;23103;-78
2022/04/30 09:21:49;;;;;;;;;;;;;;;31.31;13.81;101321.58;85586;1338;23207;-78
2022/04/30 09:24:02;;;;;;;;;;;;;;;31.01;14.45;101326.50;85599;1337;23203;-78
2022/04/30 09:26:07;;;;;;;;;;;;;;;30.84;14.08;101323.95;85598;1339;23003;-80
2022/04/30 09:28:22;;;;;;;;;;;;;;;30.50;14.16;101322.93;85608;1336;22617;-76
2022/04/30 09:30:32;;;;;;;;;;;;;;;30.10;14.32;101325.89;85546;1341;23185;-76
2022/04/30 09:32:40;;;;;;;;;;;;;;;29.60;14.18;101327.71;85569;1339;23150;-80
2022/04/30 09:39:34;;;;;;;;;;;;;;;28.24;16.66;101325.48;85516;1339;22525;-79
2022/04/30 09:41:39;;;;;;;;;;;;;;;28.12;15.77;101324.90;85422;1338;22530;-76
2022/04/30 09:43:45;;;;;;;;;;;;;;;27.76;15.19;101327.33;85592;1337;22608;-78
2022/04/30 09:45:57;;;;;;;;;;;;;;;27.35;15.28;101322.01;85592;1338;22567;-77
2022/04/30 09:53:56;;;;;;;;;;;;;;;27.12;15.63;101323.80;85586;1336;23258;-76
2022/04/30 09:55:25;;;;;;;;;;;;;;;26.60;17.63;101318.39;85592;1341;23329;-76
2022/04/30 09:57:30;;;;;;;;;;;;;;;26.62;17.47;101316.92;85584;1339;23167;-76
2022/04/30 09:59:37;;;;;;;;;;;;;;;26.64;17.69;101313.54;85587;1338;22622;-75
2022/04/30 10:01:45;;;;;;;;;;;;;;;26.70;17.81;101313.02;85572;1339;22496;-75
2022/04/30 10:04:04;;;;;;;;;;;;;;;26.69;17.36;101311.98;85590;1338;22485;-80
2022/04/30 10:06:10;;;;;;;;;;;;;;;26.58;17.16;101313.92;85517;1337;22471;-80
2022/04/30 10:08:18;;;;;;;;;;;;;;;26.42;17.50;101315.55;85571;1339;23197;-80
2022/04/30 10:10:29;;;;;;;;;;;;;;;26.24;17.62;101309.98;85562;1339;22443;-81
2022/04/30 10:12:38;;;;;;;;;;;;;;;26.15;17.59;101310.23;85573;1338;23257;-80
2022/04/30 10:14:51;;;;;;;;;;;;;;;25.99;16.93;101304.46;85466;1339;23187;-80
2022/04/30 10:17:12;;;;;;;;;;;;;;;25.82;17.64;101304.06;85592;1340;22558;-80
2022/04/30 10:19:24;;;;;;;;;;;;;;;25.66;17.41;101302.21;85592;1338;22462;-80
2022/04/30 10:21:29;;;;;;;;;;;;;;;25.42;17.62;101305.48;85540;1337;23203;-80
2022/04/30 10:23:34;;;;;;;;;;;;;;;25.25;17.23;101304.44;85573;1341;23098;-80
2022/04/30 10:25:46;;;;;;;;;;;;;;;25.02;17.28;101299.04;85594;1339;22483;-81
2022/04/30 10:27:51;;;;;;;;;;;;;;;25.00;17.62;101301.77;85585;1335;23169;-75
2022/04/30 10:29:57;;;;;;;;;;;;;;;24.90;17.31;101299.58;85526;1337;23201;-75
2022/04/30 10:32:06;;;;;;;;;;;;;;;24.68;17.44;101300.14;85576;1338;23097;-76
2022/04/30 10:34:13;;;;;;;;;;;;;;;24.51;17.59;101299.77;85526;1338;22473;-75
2022/04/30 10:36:20;;;;;;;;;;;;;;;24.47;18.35;101298.67;85521;1338;22573;-75
2022/04/30 10:38:25;;;;;;;;;;;;;;;24.39;17.84;101297.67;85576;1339;22491;-83
2022/04/30 10:40:40;;;;;;;;;;;;;;;24.20;17.68;101295.80;85585;1337;22474;-81
2022/04/30 10:42:45;;;;;;;;;;;;;;;24.06;18.30;101294.06;85579;1337;22981;-80
2022/04/30 10:44:56;;;;;;;;;;;;;;;23.92;18.90;101289.52;85571;1338;22493;-81
2022/04/30 10:47:12;;;;;;;;;;;;;;;23.81;19.03;101288.27;85563;1338;23174;-75
2022/04/30 10:49:17;;;;;;;;;;;;;;;23.65;19.35;101288.92;85428;1339;23139;-74
2022/04/30 10:51:36;;;;;;;;;;;;;;;23.50;19.30;101285.15;85570;1339;23197;-79
2022/04/30 10:53:45;;;;;;;;;;;;;;;23.25;19.07;101285.10;85567;1339;22495;-75
2022/04/30 10:55:50;;;;;;;;;;;;;;;22.96;18.61;101285.93;85569;1338;23145;-75
2022/04/30 10:57:55;;;;;;;;;;;;;;;22.78;19.33;101284.19;85584;1338;23298;-75
2022/04/30 11:00:02;;;;;;;;;;;;;;;22.75;19.97;101281.63;85576;1337;22499;-75
2022/04/30 11:02:10;;;;;;;;;;;;;;;22.72;19.85;101280.39;85561;1336;23101;-78
2022/04/30 11:04:18;;;;;;;;;;;;;;;22.73;20.26;101278.36;85566;1339;23295;-80
2022/04/30 11:06:24;;;;;;;;;;;;;;;22.78;20.37;101273.20;85566;1337;22632;-80
2022/04/30 11:08:31;;;;;;;;;;;;;;;22.84;20.86;101273.27;85575;1339;23049;-82
2022/04/30 11:10:48;;;;;;;;;;;;;;;22.92;20.68;101266.96;85570;1339;23159;-80
2022/04/30 11:13:03;;;;;;;;;;;;;;;22.95;20.94;101267.66;85561;1335;22515;-80
2022/04/30 11:15:11;;;;;;;;;;;;;;;23.03;20.94;101265.23;85551;1336;22458;-81
2022/04/30 11:17:17;;;;;;;;;;;;;;;23.16;20.49;101266.22;85577;1338;22571;-80
2022/04/30 11:19:23;;;;;;;;;;;;;;;23.16;19.99;101262.97;85540;1338;23138;-80
2022/04/30 11:21:33;;;;;;;;;;;;;;;23.10;20.09;101260.96;85567;1337;22502;-80
2022/04/30 11:23:39;;;;;;;;;;;;;;;22.99;19.73;101253.13;85557;1341;22553;-80
2022/04/30 11:25:47;;;;;;;;;;;;;;;22.76;19.67;101254.64;85562;1333;22497;-80
2022/04/30 11:28:00;;;;;;;;;;;;;;;22.52;19.88;101258.75;85573;1339;22970;-76
2022/04/30 11:30:08;;;;;;;;;;;;;;;22.33;21.00;101259.98;85583;1339;23058;-77
2022/04/30 11:32:23;;;;;;;;;;;;;;;22.18;20.64;101252.36;85560;1339;23251;-74
2022/04/30 11:34:31;;;;;;;;;;;;;;;22.01;21.24;101249.60;85411;1339;22560;-74